»·PEaware :: N791JR KSBP-KSMX

N791JR :: KSBP-KSMX

FLIGHT INFORMATION

Flight Status: Arrived
Operator: Privately registered:
United States
More flights under this callsign
Pilot: Davin Bennett (15694)
Aircraft: CESSNA 172 SKYHAWK
(C172)
More flights by this aircraft type
Origin: KSBP San Luis Co Regl
United States
Destination: KSMX Santa Maria Pub/Capt Hancock
United States
More flights between these airports :: More routes between these airports
Route: DCT
File this flight plan on PilotEdge
Remarks: CAT 04
Altitude:
(Current/Filed)
3,500ft
Speed:
(Current/Filed)
100kts
Departed: 14-Jun-17 06:58 PM
Arrived: 14-Jun-17 07:16 PM
Distance/Time
Traveled:
22nm/0:18
Distance/Time
To Go:
Arrived

Flight Plot

Page will automatically refresh every two minutes.


Map Options




Map Legend


Flown Route
Filed Route
Departure Airport
Arrival Airport
Navaid (VOR, NDB)
Fix

Horizontal Profiles

Position Reports

Time Latitude Longitude Heading Altitude Ground
Speed
14-Jun-17 18:25 35.239594 -120.642167 316 214ft 0kts
14-Jun-17 18:26 35.239594 -120.642167 316 214ft 0kts
14-Jun-17 18:27 35.239594 -120.642167 316 214ft 0kts
14-Jun-17 18:28 35.239594 -120.642167 316 214ft 0kts
14-Jun-17 18:29 35.239594 -120.642167 316 214ft 0kts
14-Jun-17 18:30 35.239594 -120.642167 316 214ft 0kts
14-Jun-17 18:31 35.239594 -120.642167 316 214ft 0kts
14-Jun-17 18:32 35.239594 -120.642167 316 214ft 0kts
14-Jun-17 18:33 35.239594 -120.642167 316 214ft 0kts
14-Jun-17 18:34 35.239594 -120.642167 316 214ft 0kts
14-Jun-17 18:35 35.239594 -120.642167 316 214ft 0kts
14-Jun-17 18:39 35.237910 -120.638639 270 214ft 0kts
14-Jun-17 18:46 35.238401 -120.640114 304 214ft 0kts
14-Jun-17 18:47 35.238401 -120.640114 304 214ft 0kts
14-Jun-17 18:48 35.238401 -120.640114 304 214ft 0kts
14-Jun-17 18:49 35.238401 -120.640114 304 214ft 0kts
14-Jun-17 18:50 35.238401 -120.640114 304 214ft 0kts
14-Jun-17 18:51 35.238401 -120.640114 304 214ft 0kts
14-Jun-17 18:52 35.238403 -120.640118 307 214ft 0kts
14-Jun-17 18:53 35.238411 -120.640130 310 214ft 0kts
14-Jun-17 18:54 35.237716 -120.639786 118 214ft 8kts
14-Jun-17 18:55 35.236192 -120.637099 124 214ft 10kts
14-Jun-17 18:56 35.234659 -120.634352 125 214ft 10kts
14-Jun-17 18:57 35.233144 -120.631957 284 214ft 0kts
14-Jun-17 18:58 35.233178 -120.632014 307 214ft 0kts
14-Jun-17 18:59 35.232898 -120.632702 222 214ft 9kts
14-Jun-17 19:00 35.240441 -120.645857 296 881ft 60kts
14-Jun-17 19:01 35.229521 -120.657288 157 1854ft 95kts
14-Jun-17 19:02 35.204043 -120.643714 175 2674ft 99kts
14-Jun-17 19:03 35.177786 -120.634279 171 3524ft 97kts
14-Jun-17 19:04 35.152077 -120.621534 157 3504ft 104kts
14-Jun-17 19:05 35.127187 -120.604238 153 3560ft 100kts
14-Jun-17 19:06 35.103166 -120.587916 153 3534ft 98kts
14-Jun-17 19:07 35.081113 -120.567924 145 3319ft 101kts
14-Jun-17 19:08 35.058888 -120.547629 149 2961ft 98kts
14-Jun-17 19:09 35.035786 -120.530654 160 2621ft 100kts
14-Jun-17 19:10 35.009258 -120.517465 158 2333ft 105kts
14-Jun-17 19:11 34.983655 -120.501007 155 2052ft 105kts
14-Jun-17 19:12 34.957758 -120.483563 155 1667ft 110kts
14-Jun-17 19:13 34.930600 -120.466730 145 1281ft 107kts
14-Jun-17 19:14 34.912843 -120.440845 123 1200ft 95kts
14-Jun-17 19:15 34.897421 -120.417111 152 961ft 81kts
14-Jun-17 19:16 34.882513 -120.427966 256 692ft 66kts
14-Jun-17 19:17 34.891302 -120.444024 313 316ft 60kts
14-Jun-17 19:18 34.897375 -120.450335 357 264ft 13kts
14-Jun-17 19:19 34.898166 -120.449770 135 264ft 10kts
14-Jun-17 19:20 34.897636 -120.447139 37 264ft 0kts
14-Jun-17 19:21 34.897636 -120.447139 37 264ft 0kts
14-Jun-17 19:22 34.897636 -120.447139 37 264ft 0kts
14-Jun-17 19:23 34.897636 -120.447139 37 264ft 0kts
14-Jun-17 19:24 34.897636 -120.447139 37 264ft 0kts
14-Jun-17 19:25 34.897636 -120.447139 37 264ft 0kts
14-Jun-17 19:26 34.897636 -120.447139 37 264ft 0kts
14-Jun-17 19:27 34.897636 -120.447139 37 264ft 0kts

Navigation Log

Ident Type
1. KSBP Airport
2. KSMX Airport